sensor_id;sensor_type;location;lat;lon;timestamp;P1;durP1;ratioP1;P2;durP2;ratioP2
8574;SDS011;4325;42.520;27.448;2023-03-20T00:00:15;26.77;;;15.73;;
8574;SDS011;4325;42.520;27.448;2023-03-20T00:02:47;24.47;;;16.07;;
8574;SDS011;4325;42.520;27.448;2023-03-20T00:05:14;24.17;;;15.93;;
8574;SDS011;4325;42.520;27.448;2023-03-20T00:07:44;28.47;;;15.77;;
8574;SDS011;4325;42.520;27.448;2023-03-20T00:10:12;31.17;;;16.00;;
8574;SDS011;4325;42.520;27.448;2023-03-20T00:12:39;20.77;;;13.83;;
8574;SDS011;4325;42.520;27.448;2023-03-20T00:15:07;19.00;;;13.90;;
8574;SDS011;4325;42.520;27.448;2023-03-20T00:17:49;22.50;;;13.73;;
8574;SDS011;4325;42.520;27.448;2023-03-20T00:20:16;24.07;;;14.83;;
8574;SDS011;4325;42.520;27.448;2023-03-20T00:22:43;22.03;;;14.37;;
8574;SDS011;4325;42.520;27.448;2023-03-20T00:25:12;28.60;;;16.17;;
8574;SDS011;4325;42.520;27.448;2023-03-20T00:27:40;28.70;;;18.03;;
8574;SDS011;4325;42.520;27.448;2023-03-20T00:30:13;26.50;;;17.73;;
8574;SDS011;4325;42.520;27.448;2023-03-20T00:32:44;24.17;;;16.67;;
8574;SDS011;4325;42.520;27.448;2023-03-20T00:35:20;30.57;;;18.20;;
8574;SDS011;4325;42.520;27.448;2023-03-20T00:37:50;29.37;;;17.60;;
8574;SDS011;4325;42.520;27.448;2023-03-20T00:40:17;26.37;;;16.30;;
8574;SDS011;4325;42.520;27.448;2023-03-20T00:42:45;26.47;;;17.07;;
8574;SDS011;4325;42.520;27.448;2023-03-20T00:45:15;25.60;;;15.83;;
8574;SDS011;4325;42.520;27.448;2023-03-20T00:47:45;30.37;;;16.73;;
8574;SDS011;4325;42.520;27.448;2023-03-20T00:50:15;24.03;;;15.87;;
8574;SDS011;4325;42.520;27.448;2023-03-20T00:52:48;23.07;;;15.50;;
8574;SDS011;4325;42.520;27.448;2023-03-20T00:55:16;26.80;;;15.33;;
8574;SDS011;4325;42.520;27.448;2023-03-20T00:57:44;30.03;;;16.83;;
8574;SDS011;4325;42.520;27.448;2023-03-20T01:00:29;24.83;;;15.47;;
8574;SDS011;4325;42.520;27.448;2023-03-20T01:03:01;21.30;;;14.70;;
8574;SDS011;4325;42.520;27.448;2023-03-20T01:05:38;23.23;;;14.13;;
8574;SDS011;4325;42.520;27.448;2023-03-20T01:08:09;30.67;;;15.00;;
8574;SDS011;4325;42.520;27.448;2023-03-20T01:10:38;28.60;;;13.93;;
8574;SDS011;4325;42.520;27.448;2023-03-20T01:13:08;27.33;;;13.70;;
8574;SDS011;4325;42.520;27.448;2023-03-20T01:15:44;27.40;;;14.07;;
8574;SDS011;4325;42.520;27.448;2023-03-20T01:18:12;22.27;;;14.20;;
8574;SDS011;4325;42.520;27.448;2023-03-20T01:20:42;23.73;;;13.27;;
8574;SDS011;4325;42.520;27.448;2023-03-20T01:23:09;22.70;;;13.10;;
8574;SDS011;4325;42.520;27.448;2023-03-20T01:25:36;24.07;;;13.97;;
8574;SDS011;4325;42.520;27.448;2023-03-20T01:28:10;25.23;;;13.87;;
8574;SDS011;4325;42.520;27.448;2023-03-20T01:30:39;27.43;;;13.53;;
8574;SDS011;4325;42.520;27.448;2023-03-20T01:33:09;30.67;;;13.27;;
8574;SDS011;4325;42.520;27.448;2023-03-20T01:35:39;19.17;;;13.53;;
8574;SDS011;4325;42.520;27.448;2023-03-20T01:38:11;23.70;;;14.13;;
8574;SDS011;4325;42.520;27.448;2023-03-20T01:40:42;28.50;;;14.07;;
8574;SDS011;4325;42.520;27.448;2023-03-20T01:43:17;23.00;;;13.77;;
8574;SDS011;4325;42.520;27.448;2023-03-20T01:45:48;27.23;;;14.10;;
8574;SDS011;4325;42.520;27.448;2023-03-20T01:48:22;20.90;;;13.57;;
8574;SDS011;4325;42.520;27.448;2023-03-20T01:50:51;18.73;;;13.57;;
8574;SDS011;4325;42.520;27.448;2023-03-20T01:53:20;30.03;;;13.87;;
8574;SDS011;4325;42.520;27.448;2023-03-20T01:55:50;23.30;;;14.13;;
8574;SDS011;4325;42.520;27.448;2023-03-20T01:58:22;22.77;;;13.87;;
8574;SDS011;4325;42.520;27.448;2023-03-20T02:00:52;22.50;;;12.50;;
8574;SDS011;4325;42.520;27.448;2023-03-20T02:03:19;24.67;;;14.57;;
8574;SDS011;4325;42.520;27.448;2023-03-20T02:05:47;30.03;;;15.27;;
8574;SDS011;4325;42.520;27.448;2023-03-20T02:08:16;29.73;;;15.67;;
8574;SDS011;4325;42.520;27.448;2023-03-20T02:10:48;26.40;;;14.77;;
8574;SDS011;4325;42.520;27.448;2023-03-20T02:13:15;27.73;;;15.13;;
8574;SDS011;4325;42.520;27.448;2023-03-20T02:15:54;30.33;;;14.57;;
8574;SDS011;4325;42.520;27.448;2023-03-20T02:18:22;27.33;;;14.50;;
8574;SDS011;4325;42.520;27.448;2023-03-20T02:20:53;27.87;;;14.70;;
8574;SDS011;4325;42.520;27.448;2023-03-20T02:23:54;27.93;;;14.47;;
8574;SDS011;4325;42.520;27.448;2023-03-20T02:26:45;21.70;;;14.07;;
8574;SDS011;4325;42.520;27.448;2023-03-20T02:38:45;27.90;;;14.03;;
8574;SDS011;4325;42.520;27.448;2023-03-20T02:41:24;21.53;;;14.47;;
8574;SDS011;4325;42.520;27.448;2023-03-20T02:43:58;23.70;;;13.60;;
8574;SDS011;4325;42.520;27.448;2023-03-20T02:46:32;30.23;;;15.23;;
8574;SDS011;4325;42.520;27.448;2023-03-20T02:49:09;25.50;;;14.93;;
8574;SDS011;4325;42.520;27.448;2023-03-20T02:51:55;22.53;;;14.67;;
8574;SDS011;4325;42.520;27.448;2023-03-20T02:54:30;24.17;;;15.77;;
8574;SDS011;4325;42.520;27.448;2023-03-20T02:57:04;25.77;;;14.77;;
8574;SDS011;4325;42.520;27.448;2023-03-20T02:59:35;22.57;;;14.07;;
8574;SDS011;4325;42.520;27.448;2023-03-20T03:02:07;50.00;;;16.40;;
8574;SDS011;4325;42.520;27.448;2023-03-20T03:04:39;29.40;;;15.83;;
8574;SDS011;4325;42.520;27.448;2023-03-20T03:07:10;35.87;;;17.60;;
8574;SDS011;4325;42.520;27.448;2023-03-20T03:09:41;32.33;;;17.50;;
8574;SDS011;4325;42.520;27.448;2023-03-20T03:12:12;28.80;;;16.37;;
8574;SDS011;4325;42.520;27.448;2023-03-20T03:14:42;24.73;;;16.40;;
8574;SDS011;4325;42.520;27.448;2023-03-20T03:17:13;27.37;;;15.97;;
8574;SDS011;4325;42.520;27.448;2023-03-20T03:19:43;28.37;;;16.30;;
8574;SDS011;4325;42.520;27.448;2023-03-20T03:22:13;29.13;;;17.40;;
8574;SDS011;4325;42.520;27.448;2023-03-20T03:24:43;33.37;;;19.77;;
8574;SDS011;4325;42.520;27.448;2023-03-20T03:27:14;36.30;;;21.53;;
8574;SDS011;4325;42.520;27.448;2023-03-20T03:29:46;41.63;;;24.00;;
8574;SDS011;4325;42.520;27.448;2023-03-20T03:32:20;40.00;;;23.57;;
8574;SDS011;4325;42.520;27.448;2023-03-20T03:34:50;49.13;;;23.13;;
8574;SDS011;4325;42.520;27.448;2023-03-20T03:37:19;54.00;;;24.73;;
8574;SDS011;4325;42.520;27.448;2023-03-20T03:40:07;40.80;;;22.63;;
8574;SDS011;4325;42.520;27.448;2023-03-20T03:42:44;64.10;;;19.97;;
8574;SDS011;4325;42.520;27.448;2023-03-20T03:45:19;56.93;;;20.47;;
8574;SDS011;4325;42.520;27.448;2023-03-20T03:48:09;49.13;;;20.07;;
8574;SDS011;4325;42.520;27.448;2023-03-20T03:50:40;159.67;;;18.53;;
8574;SDS011;4325;42.520;27.448;2023-03-20T03:53:13;80.87;;;17.50;;
8574;SDS011;4325;42.520;27.448;2023-03-20T03:55:44;48.27;;;15.97;;
8574;SDS011;4325;42.520;27.448;2023-03-20T03:58:16;123.03;;;15.37;;
8574;SDS011;4325;42.520;27.448;2023-03-20T04:00:47;137.43;;;17.77;;
8574;SDS011;4325;42.520;27.448;2023-03-20T04:03:18;28.50;;;16.97;;
8574;SDS011;4325;42.520;27.448;2023-03-20T04:05:49;48.90;;;20.47;;
8574;SDS011;4325;42.520;27.448;2023-03-20T04:08:19;67.30;;;21.30;;
8574;SDS011;4325;42.520;27.448;2023-03-20T04:10:48;65.90;;;23.53;;
8574;SDS011;4325;42.520;27.448;2023-03-20T04:13:15;83.57;;;17.63;;
8574;SDS011;4325;42.520;27.448;2023-03-20T04:15:42;28.83;;;16.50;;
8574;SDS011;4325;42.520;27.448;2023-03-20T04:18:09;25.97;;;16.17;;
8574;SDS011;4325;42.520;27.448;2023-03-20T04:20:41;27.63;;;16.47;;
8574;SDS011;4325;42.520;27.448;2023-03-20T04:23:08;32.73;;;19.33;;
8574;SDS011;4325;42.520;27.448;2023-03-20T04:25:35;36.20;;;22.03;;
8574;SDS011;4325;42.520;27.448;2023-03-20T04:28:03;70.33;;;23.73;;
8574;SDS011;4325;42.520;27.448;2023-03-20T04:30:31;52.97;;;21.90;;
8574;SDS011;4325;42.520;27.448;2023-03-20T04:32:58;37.93;;;22.60;;
8574;SDS011;4325;42.520;27.448;2023-03-20T04:35:25;55.60;;;23.97;;
8574;SDS011;4325;42.520;27.448;2023-03-20T04:37:51;63.93;;;23.57;;
8574;SDS011;4325;42.520;27.448;2023-03-20T04:40:18;44.07;;;22.97;;
8574;SDS011;4325;42.520;27.448;2023-03-20T04:42:45;46.63;;;24.53;;
8574;SDS011;4325;42.520;27.448;2023-03-20T04:45:13;65.63;;;27.20;;
8574;SDS011;4325;42.520;27.448;2023-03-20T04:47:40;53.40;;;26.47;;
8574;SDS011;4325;42.520;27.448;2023-03-20T04:50:07;36.50;;;22.57;;
8574;SDS011;4325;42.520;27.448;2023-03-20T04:52:35;37.67;;;23.27;;
8574;SDS011;4325;42.520;27.448;2023-03-20T04:55:03;38.20;;;22.13;;
8574;SDS011;4325;42.520;27.448;2023-03-20T04:57:30;88.17;;;21.43;;
8574;SDS011;4325;42.520;27.448;2023-03-20T04:59:57;34.47;;;19.60;;
8574;SDS011;4325;42.520;27.448;2023-03-20T05:02:25;41.80;;;22.00;;
8574;SDS011;4325;42.520;27.448;2023-03-20T05:04:52;106.13;;;19.00;;
8574;SDS011;4325;42.520;27.448;2023-03-20T05:07:19;86.80;;;17.43;;
8574;SDS011;4325;42.520;27.448;2023-03-20T05:09:46;52.37;;;18.27;;
8574;SDS011;4325;42.520;27.448;2023-03-20T05:12:13;69.13;;;14.00;;
8574;SDS011;4325;42.520;27.448;2023-03-20T05:14:40;78.27;;;16.00;;
8574;SDS011;4325;42.520;27.448;2023-03-20T05:17:07;43.80;;;21.33;;
8574;SDS011;4325;42.520;27.448;2023-03-20T05:19:35;88.50;;;16.03;;
8574;SDS011;4325;42.520;27.448;2023-03-20T05:22:02;37.30;;;17.23;;
8574;SDS011;4325;42.520;27.448;2023-03-20T05:24:29;51.83;;;14.13;;
8574;SDS011;4325;42.520;27.448;2023-03-20T05:26:56;63.37;;;12.43;;
8574;SDS011;4325;42.520;27.448;2023-03-20T05:29:23;43.43;;;16.90;;
8574;SDS011;4325;42.520;27.448;2023-03-20T05:31:50;49.17;;;10.43;;
8574;SDS011;4325;42.520;27.448;2023-03-20T05:34:18;36.50;;;12.93;;
8574;SDS011;4325;42.520;27.448;2023-03-20T05:36:46;115.07;;;17.07;;
8574;SDS011;4325;42.520;27.448;2023-03-20T05:39:13;120.60;;;20.00;;
8574;SDS011;4325;42.520;27.448;2023-03-20T05:41:40;68.47;;;13.40;;
8574;SDS011;4325;42.520;27.448;2023-03-20T05:44:07;55.97;;;16.33;;
8574;SDS011;4325;42.520;27.448;2023-03-20T05:46:34;46.67;;;11.13;;
8574;SDS011;4325;42.520;27.448;2023-03-20T05:49:01;68.20;;;13.60;;
8574;SDS011;4325;42.520;27.448;2023-03-20T05:51:28;25.87;;;12.53;;
8574;SDS011;4325;42.520;27.448;2023-03-20T05:53:56;19.60;;;13.17;;
8574;SDS011;4325;42.520;27.448;2023-03-20T05:56:23;61.17;;;13.23;;
8574;SDS011;4325;42.520;27.448;2023-03-20T05:58:50;31.57;;;11.47;;
8574;SDS011;4325;42.520;27.448;2023-03-20T06:01:17;22.93;;;11.77;;
8574;SDS011;4325;42.520;27.448;2023-03-20T06:03:45;30.60;;;13.57;;
8574;SDS011;4325;42.520;27.448;2023-03-20T06:06:13;83.23;;;13.73;;
8574;SDS011;4325;42.520;27.448;2023-03-20T06:08:40;38.77;;;15.00;;
8574;SDS011;4325;42.520;27.448;2023-03-20T06:11:08;34.00;;;12.37;;
8574;SDS011;4325;42.520;27.448;2023-03-20T06:13:36;24.87;;;11.13;;
8574;SDS011;4325;42.520;27.448;2023-03-20T06:16:03;33.40;;;14.57;;
8574;SDS011;4325;42.520;27.448;2023-03-20T06:18:30;25.00;;;15.53;;
8574;SDS011;4325;42.520;27.448;2023-03-20T06:20:57;22.57;;;13.63;;
8574;SDS011;4325;42.520;27.448;2023-03-20T06:23:24;21.30;;;12.10;;
8574;SDS011;4325;42.520;27.448;2023-03-20T06:25:51;13.67;;;11.53;;
8574;SDS011;4325;42.520;27.448;2023-03-20T06:28:19;15.73;;;11.43;;
8574;SDS011;4325;42.520;27.448;2023-03-20T06:30:46;19.00;;;12.20;;
8574;SDS011;4325;42.520;27.448;2023-03-20T06:33:16;19.87;;;12.57;;
8574;SDS011;4325;42.520;27.448;2023-03-20T06:35:44;18.27;;;11.13;;
8574;SDS011;4325;42.520;27.448;2023-03-20T06:38:11;16.60;;;12.57;;
8574;SDS011;4325;42.520;27.448;2023-03-20T06:40:37;13.30;;;9.63;;
8574;SDS011;4325;42.520;27.448;2023-03-20T06:43:05;14.90;;;10.87;;
8574;SDS011;4325;42.520;27.448;2023-03-20T06:45:34;18.73;;;12.27;;
8574;SDS011;4325;42.520;27.448;2023-03-20T06:48:00;14.27;;;10.60;;
8574;SDS011;4325;42.520;27.448;2023-03-20T06:50:31;16.87;;;11.20;;
8574;SDS011;4325;42.520;27.448;2023-03-20T06:52:58;16.13;;;13.37;;
8574;SDS011;4325;42.520;27.448;2023-03-20T06:55:25;15.67;;;11.23;;
8574;SDS011;4325;42.520;27.448;2023-03-20T06:57:51;20.20;;;13.10;;
8574;SDS011;4325;42.520;27.448;2023-03-20T07:00:18;23.73;;;16.00;;
8574;SDS011;4325;42.520;27.448;2023-03-20T07:02:47;23.77;;;15.07;;
8574;SDS011;4325;42.520;27.448;2023-03-20T07:05:14;25.40;;;14.77;;
8574;SDS011;4325;42.520;27.448;2023-03-20T07:07:41;27.57;;;14.73;;
8574;SDS011;4325;42.520;27.448;2023-03-20T07:10:08;25.00;;;14.97;;
8574;SDS011;4325;42.520;27.448;2023-03-20T07:12:36;22.50;;;15.67;;
8574;SDS011;4325;42.520;27.448;2023-03-20T07:15:03;22.60;;;15.23;;
8574;SDS011;4325;42.520;27.448;2023-03-20T07:17:31;30.33;;;18.70;;
8574;SDS011;4325;42.520;27.448;2023-03-20T07:19:59;26.17;;;17.00;;
8574;SDS011;4325;42.520;27.448;2023-03-20T07:22:26;26.00;;;18.20;;
8574;SDS011;4325;42.520;27.448;2023-03-20T07:24:54;27.13;;;18.23;;
8574;SDS011;4325;42.520;27.448;2023-03-20T07:27:21;29.47;;;17.10;;
8574;SDS011;4325;42.520;27.448;2023-03-20T07:29:48;24.97;;;16.07;;
8574;SDS011;4325;42.520;27.448;2023-03-20T07:32:14;26.03;;;16.07;;
8574;SDS011;4325;42.520;27.448;2023-03-20T07:34:41;23.23;;;15.83;;
8574;SDS011;4325;42.520;27.448;2023-03-20T07:37:10;23.27;;;15.73;;
8574;SDS011;4325;42.520;27.448;2023-03-20T07:39:36;22.03;;;15.70;;
8574;SDS011;4325;42.520;27.448;2023-03-20T07:42:03;24.30;;;16.17;;
8574;SDS011;4325;42.520;27.448;2023-03-20T07:44:31;20.83;;;15.07;;
8574;SDS011;4325;42.520;27.448;2023-03-20T07:46:57;21.07;;;16.03;;
8574;SDS011;4325;42.520;27.448;2023-03-20T07:49:24;23.23;;;17.93;;
8574;SDS011;4325;42.520;27.448;2023-03-20T07:51:51;27.47;;;18.43;;
8574;SDS011;4325;42.520;27.448;2023-03-20T07:54:22;30.83;;;22.57;;
8574;SDS011;4325;42.520;27.448;2023-03-20T07:56:49;27.37;;;24.10;;
8574;SDS011;4325;42.520;27.448;2023-03-20T07:59:17;27.67;;;20.10;;
8574;SDS011;4325;42.520;27.448;2023-03-20T08:01:44;23.67;;;18.30;;
8574;SDS011;4325;42.520;27.448;2023-03-20T08:04:10;23.03;;;16.43;;
8574;SDS011;4325;42.520;27.448;2023-03-20T08:06:37;22.43;;;15.20;;
8574;SDS011;4325;42.520;27.448;2023-03-20T08:09:04;20.73;;;13.50;;
8574;SDS011;4325;42.520;27.448;2023-03-20T08:11:33;17.00;;;12.67;;
8574;SDS011;4325;42.520;27.448;2023-03-20T08:14:00;16.47;;;12.73;;
8574;SDS011;4325;42.520;27.448;2023-03-20T08:16:26;16.37;;;13.00;;
8574;SDS011;4325;42.520;27.448;2023-03-20T08:18:53;19.30;;;12.93;;
8574;SDS011;4325;42.520;27.448;2023-03-20T08:21:25;13.00;;;11.33;;
8574;SDS011;4325;42.520;27.448;2023-03-20T08:23:52;16.33;;;11.37;;
8574;SDS011;4325;42.520;27.448;2023-03-20T08:26:20;17.27;;;12.40;;
8574;SDS011;4325;42.520;27.448;2023-03-20T08:28:48;16.40;;;12.50;;
8574;SDS011;4325;42.520;27.448;2023-03-20T08:31:15;16.87;;;12.17;;
8574;SDS011;4325;42.520;27.448;2023-03-20T08:33:43;16.10;;;11.97;;
8574;SDS011;4325;42.520;27.448;2023-03-20T08:36:10;23.67;;;12.67;;
8574;SDS011;4325;42.520;27.448;2023-03-20T08:38:39;21.30;;;11.10;;
8574;SDS011;4325;42.520;27.448;2023-03-20T08:41:06;18.73;;;11.80;;
8574;SDS011;4325;42.520;27.448;2023-03-20T08:43:33;16.00;;;10.50;;
8574;SDS011;4325;42.520;27.448;2023-03-20T08:46:02;21.17;;;11.23;;
8574;SDS011;4325;42.520;27.448;2023-03-20T08:48:29;16.80;;;10.93;;
8574;SDS011;4325;42.520;27.448;2023-03-20T08:50:56;17.90;;;10.90;;
8574;SDS011;4325;42.520;27.448;2023-03-20T08:53:22;18.43;;;11.13;;
8574;SDS011;4325;42.520;27.448;2023-03-20T08:55:50;15.43;;;10.53;;
8574;SDS011;4325;42.520;27.448;2023-03-20T08:58:18;18.97;;;10.30;;
8574;SDS011;4325;42.520;27.448;2023-03-20T09:00:47;13.77;;;9.70;;
8574;SDS011;4325;42.520;27.448;2023-03-20T09:03:17;16.67;;;8.77;;
8574;SDS011;4325;42.520;27.448;2023-03-20T09:05:45;17.90;;;10.27;;
8574;SDS011;4325;42.520;27.448;2023-03-20T09:08:13;21.27;;;10.17;;
8574;SDS011;4325;42.520;27.448;2023-03-20T09:10:40;17.23;;;10.13;;
8574;SDS011;4325;42.520;27.448;2023-03-20T09:13:08;16.00;;;10.13;;
8574;SDS011;4325;42.520;27.448;2023-03-20T09:15:35;13.63;;;9.67;;
8574;SDS011;4325;42.520;27.448;2023-03-20T09:18:02;16.93;;;9.07;;
8574;SDS011;4325;42.520;27.448;2023-03-20T09:20:30;17.67;;;9.53;;
8574;SDS011;4325;42.520;27.448;2023-03-20T09:22:57;12.37;;;8.77;;
8574;SDS011;4325;42.520;27.448;2023-03-20T09:25:24;13.87;;;9.77;;
8574;SDS011;4325;42.520;27.448;2023-03-20T09:27:51;16.77;;;9.63;;
8574;SDS011;4325;42.520;27.448;2023-03-20T09:30:19;21.43;;;10.50;;
8574;SDS011;4325;42.520;27.448;2023-03-20T09:32:47;19.83;;;9.40;;
8574;SDS011;4325;42.520;27.448;2023-03-20T09:35:15;17.47;;;9.33;;
8574;SDS011;4325;42.520;27.448;2023-03-20T09:37:44;20.03;;;11.00;;
8574;SDS011;4325;42.520;27.448;2023-03-20T09:40:17;17.27;;;10.33;;
8574;SDS011;4325;42.520;27.448;2023-03-20T09:42:51;15.67;;;9.67;;
8574;SDS011;4325;42.520;27.448;2023-03-20T09:45:26;20.23;;;11.53;;
8574;SDS011;4325;42.520;27.448;2023-03-20T09:48:06;18.27;;;11.13;;
8574;SDS011;4325;42.520;27.448;2023-03-20T09:50:42;20.87;;;10.83;;
8574;SDS011;4325;42.520;27.448;2023-03-20T09:53:17;22.57;;;11.40;;
8574;SDS011;4325;42.520;27.448;2023-03-20T09:55:50;16.97;;;12.00;;
8574;SDS011;4325;42.520;27.448;2023-03-20T09:58:20;15.73;;;10.83;;
8574;SDS011;4325;42.520;27.448;2023-03-20T10:00:51;15.57;;;9.80;;
8574;SDS011;4325;42.520;27.448;2023-03-20T10:03:23;18.67;;;11.47;;
8574;SDS011;4325;42.520;27.448;2023-03-20T10:05:55;17.50;;;10.03;;
8574;SDS011;4325;42.520;27.448;2023-03-20T10:08:28;16.87;;;10.50;;
8574;SDS011;4325;42.520;27.448;2023-03-20T10:11:01;17.40;;;9.57;;
8574;SDS011;4325;42.520;27.448;2023-03-20T10:13:42;17.47;;;9.30;;
8574;SDS011;4325;42.520;27.448;2023-03-20T10:16:23;18.73;;;12.27;;
8574;SDS011;4325;42.520;27.448;2023-03-20T10:18:59;17.43;;;12.17;;
8574;SDS011;4325;42.520;27.448;2023-03-20T10:21:31;15.43;;;10.03;;
8574;SDS011;4325;42.520;27.448;2023-03-20T10:24:08;17.03;;;9.50;;
8574;SDS011;4325;42.520;27.448;2023-03-20T10:26:43;18.03;;;10.57;;
8574;SDS011;4325;42.520;27.448;2023-03-20T10:29:14;16.50;;;9.77;;
8574;SDS011;4325;42.520;27.448;2023-03-20T10:31:50;20.83;;;9.83;;
8574;SDS011;4325;42.520;27.448;2023-03-20T10:34:25;14.67;;;9.07;;
8574;SDS011;4325;42.520;27.448;2023-03-20T10:37:07;13.90;;;10.13;;
8574;SDS011;4325;42.520;27.448;2023-03-20T10:39:48;14.43;;;10.30;;
8574;SDS011;4325;42.520;27.448;2023-03-20T10:42:27;17.37;;;10.37;;
8574;SDS011;4325;42.520;27.448;2023-03-20T10:44:57;18.50;;;10.10;;
8574;SDS011;4325;42.520;27.448;2023-03-20T10:47:27;15.53;;;9.23;;
8574;SDS011;4325;42.520;27.448;2023-03-20T10:50:00;17.07;;;9.70;;
8574;SDS011;4325;42.520;27.448;2023-03-20T10:52:32;16.50;;;9.70;;
8574;SDS011;4325;42.520;27.448;2023-03-20T10:55:06;17.87;;;9.87;;
8574;SDS011;4325;42.520;27.448;2023-03-20T10:57:37;19.17;;;10.00;;
8574;SDS011;4325;42.520;27.448;2023-03-20T11:00:12;15.77;;;8.90;;
8574;SDS011;4325;42.520;27.448;2023-03-20T11:02:43;14.03;;;9.47;;
8574;SDS011;4325;42.520;27.448;2023-03-20T11:05:20;13.70;;;9.07;;
8574;SDS011;4325;42.520;27.448;2023-03-20T11:08:00;19.07;;;10.27;;
8574;SDS011;4325;42.520;27.448;2023-03-20T11:10:31;18.67;;;9.23;;
8574;SDS011;4325;42.520;27.448;2023-03-20T11:13:02;18.80;;;9.27;;
8574;SDS011;4325;42.520;27.448;2023-03-20T11:15:40;13.33;;;7.90;;
8574;SDS011;4325;42.520;27.448;2023-03-20T11:18:09;22.83;;;10.30;;
8574;SDS011;4325;42.520;27.448;2023-03-20T11:20:44;16.90;;;8.70;;
8574;SDS011;4325;42.520;27.448;2023-03-20T11:23:15;19.97;;;9.73;;
8574;SDS011;4325;42.520;27.448;2023-03-20T11:25:47;17.67;;;9.70;;
8574;SDS011;4325;42.520;27.448;2023-03-20T11:28:17;19.33;;;9.20;;
8574;SDS011;4325;42.520;27.448;2023-03-20T11:30:45;17.97;;;10.17;;
8574;SDS011;4325;42.520;27.448;2023-03-20T11:33:14;13.80;;;8.73;;
8574;SDS011;4325;42.520;27.448;2023-03-20T11:35:44;13.63;;;8.35;;
8574;SDS011;4325;42.520;27.448;2023-03-20T11:38:12;19.30;;;9.02;;
8574;SDS011;4325;42.520;27.448;2023-03-20T11:40:40;16.45;;;9.38;;
8574;SDS011;4325;42.520;27.448;2023-03-20T11:43:11;12.48;;;8.50;;
8574;SDS011;4325;42.520;27.448;2023-03-20T11:45:39;19.88;;;8.85;;
8574;SDS011;4325;42.520;27.448;2023-03-20T11:48:13;21.45;;;9.35;;
8574;SDS011;4325;42.520;27.448;2023-03-20T11:50:45;19.60;;;8.65;;
8574;SDS011;4325;42.520;27.448;2023-03-20T11:53:19;14.00;;;7.95;;
8574;SDS011;4325;42.520;27.448;2023-03-20T11:55:57;12.30;;;8.48;;
8574;SDS011;4325;42.520;27.448;2023-03-20T11:58:29;16.15;;;8.18;;
8574;SDS011;4325;42.520;27.448;2023-03-20T12:00:57;18.17;;;7.97;;
8574;SDS011;4325;42.520;27.448;2023-03-20T12:03:36;15.30;;;8.50;;
8574;SDS011;4325;42.520;27.448;2023-03-20T12:06:15;17.38;;;7.95;;
8574;SDS011;4325;42.520;27.448;2023-03-20T12:08:51;13.55;;;8.00;;
8574;SDS011;4325;42.520;27.448;2023-03-20T12:11:41;16.70;;;8.98;;
8574;SDS011;4325;42.520;27.448;2023-03-20T12:14:16;11.77;;;7.93;;
8574;SDS011;4325;42.520;27.448;2023-03-20T12:16:48;11.82;;;7.68;;
8574;SDS011;4325;42.520;27.448;2023-03-20T12:19:19;10.15;;;7.70;;
8574;SDS011;4325;42.520;27.448;2023-03-20T12:21:57;15.43;;;7.07;;
8574;SDS011;4325;42.520;27.448;2023-03-20T12:24:30;11.02;;;7.22;;
8574;SDS011;4325;42.520;27.448;2023-03-20T12:27:10;13.60;;;7.40;;
8574;SDS011;4325;42.520;27.448;2023-03-20T12:29:45;17.30;;;7.63;;
8574;SDS011;4325;42.520;27.448;2023-03-20T12:32:19;10.75;;;7.03;;
8574;SDS011;4325;42.520;27.448;2023-03-20T12:34:53;13.27;;;8.05;;
8574;SDS011;4325;42.520;27.448;2023-03-20T12:37:23;10.82;;;7.25;;
8574;SDS011;4325;42.520;27.448;2023-03-20T12:39:51;14.93;;;7.10;;
8574;SDS011;4325;42.520;27.448;2023-03-20T12:42:24;13.07;;;6.93;;
8574;SDS011;4325;42.520;27.448;2023-03-20T12:45:05;13.95;;;7.55;;
8574;SDS011;4325;42.520;27.448;2023-03-20T12:47:45;12.57;;;6.47;;
8574;SDS011;4325;42.520;27.448;2023-03-20T12:50:29;11.17;;;6.83;;
8574;SDS011;4325;42.520;27.448;2023-03-20T12:53:02;13.70;;;6.80;;
8574;SDS011;4325;42.520;27.448;2023-03-20T12:55:55;12.30;;;6.17;;
8574;SDS011;4325;42.520;27.448;2023-03-20T12:58:31;11.17;;;7.07;;
8574;SDS011;4325;42.520;27.448;2023-03-20T13:01:07;11.03;;;6.80;;
8574;SDS011;4325;42.520;27.448;2023-03-20T13:03:42;14.17;;;5.80;;
8574;SDS011;4325;42.520;27.448;2023-03-20T13:06:28;10.33;;;5.87;;
8574;SDS011;4325;42.520;27.448;2023-03-20T13:09:15;25.17;;;6.33;;
8574;SDS011;4325;42.520;27.448;2023-03-20T13:12:07;19.03;;;6.70;;
8574;SDS011;4325;42.520;27.448;2023-03-20T13:14:45;13.13;;;5.93;;
8574;SDS011;4325;42.520;27.448;2023-03-20T13:17:21;18.03;;;6.63;;
8574;SDS011;4325;42.520;27.448;2023-03-20T13:19:56;19.53;;;7.00;;
8574;SDS011;4325;42.520;27.448;2023-03-20T13:22:41;25.70;;;6.33;;
8574;SDS011;4325;42.520;27.448;2023-03-20T13:25:19;14.65;;;6.53;;
8574;SDS011;4325;42.520;27.448;2023-03-20T13:27:58;26.87;;;6.43;;
8574;SDS011;4325;42.520;27.448;2023-03-20T13:30:33;20.57;;;6.27;;
8574;SDS011;4325;42.520;27.448;2023-03-20T13:33:22;18.13;;;6.27;;
8574;SDS011;4325;42.520;27.448;2023-03-20T13:35:59;27.37;;;5.73;;
8574;SDS011;4325;42.520;27.448;2023-03-20T13:38:32;15.70;;;6.27;;
8574;SDS011;4325;42.520;27.448;2023-03-20T13:41:01;20.17;;;5.80;;
8574;SDS011;4325;42.520;27.448;2023-03-20T13:43:30;23.10;;;6.43;;
8574;SDS011;4325;42.520;27.448;2023-03-20T13:46:04;20.10;;;7.07;;
8574;SDS011;4325;42.520;27.448;2023-03-20T13:48:37;23.90;;;6.50;;
8574;SDS011;4325;42.520;27.448;2023-03-20T13:51:17;16.53;;;5.90;;
8574;SDS011;4325;42.520;27.448;2023-03-20T13:53:54;22.03;;;6.73;;
8574;SDS011;4325;42.520;27.448;2023-03-20T13:56:32;20.77;;;7.23;;
8574;SDS011;4325;42.520;27.448;2023-03-20T13:59:14;17.20;;;6.90;;
8574;SDS011;4325;42.520;27.448;2023-03-20T14:02:06;21.80;;;6.60;;
8574;SDS011;4325;42.520;27.448;2023-03-20T14:04:43;29.03;;;7.90;;
8574;SDS011;4325;42.520;27.448;2023-03-20T14:07:25;34.27;;;7.67;;
8574;SDS011;4325;42.520;27.448;2023-03-20T14:09:54;20.13;;;7.73;;
8574;SDS011;4325;42.520;27.448;2023-03-20T14:12:22;20.67;;;6.97;;
8574;SDS011;4325;42.520;27.448;2023-03-20T14:14:51;29.73;;;7.07;;
8574;SDS011;4325;42.520;27.448;2023-03-20T14:17:21;20.30;;;7.03;;
8574;SDS011;4325;42.520;27.448;2023-03-20T14:19:52;27.97;;;8.10;;
8574;SDS011;4325;42.520;27.448;2023-03-20T14:22:20;29.03;;;8.27;;
8574;SDS011;4325;42.520;27.448;2023-03-20T14:24:53;21.57;;;8.70;;
8574;SDS011;4325;42.520;27.448;2023-03-20T14:27:24;28.80;;;7.87;;
8574;SDS011;4325;42.520;27.448;2023-03-20T14:29:53;24.37;;;7.90;;
8574;SDS011;4325;42.520;27.448;2023-03-20T14:35:22;24.70;;;7.73;;
8574;SDS011;4325;42.520;27.448;2023-03-20T14:38:07;21.30;;;7.90;;
8574;SDS011;4325;42.520;27.448;2023-03-20T14:40:48;23.83;;;8.10;;
8574;SDS011;4325;42.520;27.448;2023-03-20T14:43:31;28.77;;;7.87;;
8574;SDS011;4325;42.520;27.448;2023-03-20T14:46:15;17.30;;;8.07;;
8574;SDS011;4325;42.520;27.448;2023-03-20T14:48:48;22.60;;;7.90;;
8574;SDS011;4325;42.520;27.448;2023-03-20T14:51:25;21.73;;;8.37;;
8574;SDS011;4325;42.520;27.448;2023-03-20T14:56:51;26.93;;;8.07;;
8574;SDS011;4325;42.520;27.448;2023-03-20T14:59:19;28.83;;;7.47;;
8574;SDS011;4325;42.520;27.448;2023-03-20T15:01:52;26.73;;;8.00;;
8574;SDS011;4325;42.520;27.448;2023-03-20T15:04:23;29.50;;;9.47;;
8574;SDS011;4325;42.520;27.448;2023-03-20T15:06:59;28.77;;;8.50;;
8574;SDS011;4325;42.520;27.448;2023-03-20T15:09:28;24.93;;;9.20;;
8574;SDS011;4325;42.520;27.448;2023-03-20T15:11:58;33.53;;;10.90;;
8574;SDS011;4325;42.520;27.448;2023-03-20T15:14:30;24.53;;;9.50;;
8574;SDS011;4325;42.520;27.448;2023-03-20T15:17:00;24.93;;;9.47;;